Ana Sayfa
METAR-TAF:

METAR-TAF

Havaalanları :

Kerpe, Yunanistan

Enlem: 35-24-51N, Boylam: 027-08-54E, yükseklik: 6 m

Güncel hava durumu gözlemi

Rapor saat 21:20 UTC de 3 saat ve 40 dakika önce yapıldı.
Rüzgar batıdan 10 kt
Sıcaklık 13°C
Nem 82%
Basınç 1017 hPa

METAR: LGKP 252120Z AUTO 28010KT //// // ////// 13/10 Q1017 RE//

Saat: 03:00 (01:00 UTC)

Tahmin

Rapor saat 23:00 UTC de 2 saat ve 0 dakika önce yapıldı.
Ayın 26'si saat 00 UTC'den ayın 26'si saat 09 UTC'ye kadar geçerli Tahmin
Rüzgar batıdan 15 kt
Görüş mesafesi 10 km veya daha fazla
1800 ft yükseklikte az bulutlu

TAF: LGKP 252300Z 2600/2609 27015KT 9999 FEW018

4.000'den fazla havaalanı için hava durumu gözlemleri ve tahminleri (METAR ve TAF raporları).

Kullanılabilir istasyonlar harita üzerinde sarı ve kırmızı noktalarla gösterilir.

İstasyonun adını görmek için fareyi noktanın üzerinde gezdirin.

Sonrasında hava gözlem ve tahminlerini görmek için tıklayın.

Haritayı değiştirmek için: yaklaştırmak için siyah artı işaretli yeşil düğmeye ve uzaklaştırmak için de eksi işaretli düğmeye hızla tıklayın; bitişik haritalar için yeşil okları kullanın.


METAR-TAF: